Aérodrome :
LOGIN :

S'inscrire | Disclaimer

   EN    FR    IT 

 










Légende :    VFR   VFR Marginal   IFR   IFR Intensif   IFR Très Intensif
Visi : 
Plafond : 
>= 8 km
>= 3000ft
5 à 8 km
1000 à 3000 ft
1500m à 5 km
500 à 1000 ft
800 à 1500m
200 à 500 ft
< 800m
< 200 ft
Symboles :   Orages  Brouillard  Fortes neiges  Fortes précipitations  Vent > 20 kt
SIGMETs :   Divers  Orages  Givrage  Turbulence  Onde Orograph.  Cendres Volcan.







- Altitude de l'aérodrome : 0 ft


ETEB - Ansbach Army Heliport

DERNIER METAR :
  • 140956Z AUTO 25014G20KT 9999 BKN036 OVC060 20/11 A3000 RMK AO2 SLP159 T01960114 $

METARs EXPIRÉS :
  • 140856Z AUTO 25010KT 9999 SCT030 BKN044 19/12 A2999 RMK AO2 SLP155 T01940122 50008 $
  • 140756Z AUTO 26011KT 9999 SCT022 BKN033 18/13 A2999 RMK AO2 SLP155 T01820126 $
  • 140741Z AUTO 26012KT 9999 BKN022 BKN030 18/13 A2998 RMK AO2 CIG 022V027 SLP152 $

TAF AMD TAF ETEB
Valide du 14 à 10h jusqu'au 15 à 11h UTC


141009Z 1410/1511 26012G20KT 9999 SCT025 BKN040 QNH2992INS
BECMG 1411/1412 29009KT 9999 VCSH BKN030 QNH2994INS
BECMG 1420/1421 VRB06KT 8000 BR SCT015 BKN025 QNH3000INS
TEMPO 1501/1506 5000 BR BKN012
BECMG 1506/1507 30009KT 9999 NSW FEW015 SCT025 QNH3003INS TX24/1415Z TN13/1505Z
Pas de NOTAMs connus pour ce terrain.



MET'MAP, la Météo Aéronautique d'un coup d'oeil ! - Copyright ORBIFLY Décembre 2007 - Disclaimer

ORBIFLY MET'MAP TEAM :

Programmation & Développement : Alexandra Zaïnal
Conception & Développement : Baudouin d'Aumeries
Co-Programmation & Développement : Marc-Olivier Méhu
Soutien technique & logistique : Manuel Goepfert

Contact : metmap@orbifly.com




SOURCES & CREDITS :

   NOAA